F/V Carmalia — FMFK — position and weather

sailwx.info

Track history (hours):
 
Tides and Currents Weather Stations Pressure Air Temp Water Temp Dewpoint Dewpoint Depression Visibility Wind Speed Wind Dir Waves Ship Positions

F/V Carmalia

Last reported at 2014-Oct-01 19:33 UTC. Time now 2014-Oct-01 20:27 UTC.
Position N 47°44' W 003°22'.

Length 17 m.

Type: Fishing. MMSI: 228222900.

Date/timePositionNaut miles runAvg speedWind from/ knotsBaromVisibWave heightAir tempDewpointWater temp
2014-Oct-01 19:33N 47°44' W 003°22'0 0.0
2014-Oct-01 18:33N 47°44' W 003°22'6 5.9
2014-Oct-01 17:33N 47°42' W 003°30'  
2014-Sep-22 17:29N 47°42' W 003°35'9 9.3
2014-Sep-22 16:33N 47°43' W 003°22'1 1.1
2014-Sep-22 15:33N 47°44' W 003°22'0 0.0
2014-Sep-22 14:33N 47°44' W 003°22'0 0.1
2014-Sep-22 13:33N 47°44' W 003°22'0 0.0
2014-Sep-22 12:33N 47°44' W 003°22'0 0.0
2014-Sep-22 11:33N 47°44' W 003°22'0 0.0
2014-Sep-22 10:33N 47°44' W 003°22'0 0.0
2014-Sep-22 09:33N 47°44' W 003°22'0 0.0
2014-Sep-22 08:33N 47°44' W 003°22'0 0.0
2014-Sep-22 07:33N 47°44' W 003°22'0 0.0
2014-Sep-22 06:33N 47°44' W 003°22'0 0.0
2014-Sep-22 05:33N 47°44' W 003°22'4 4.0
2014-Sep-22 04:33N 47°41' W 003°26'  
Track history (hours):
 
Tides and Currents Weather Stations Pressure Air Temp Water Temp Dewpoint Dewpoint Depression Visibility Wind Speed Wind Dir Waves Ship Positions

F/V Carmalia

Last reported at 2014-Oct-01 19:33 UTC. Time now 2014-Oct-01 20:27 UTC.
Position N 47°44' W 003°22'.

Length 17 m.

Type: Fishing. MMSI: 228222900.

Date/timePositionNaut miles runAvg speedWind from/ knotsBaromVisibWave heightAir tempDewpointWater temp
2014-Oct-01 19:33N 47°44' W 003°22'0 0.0
2014-Oct-01 18:33N 47°44' W 003°22'6 5.9
2014-Oct-01 17:33N 47°42' W 003°30'  
2014-Sep-22 17:29N 47°42' W 003°35'9 9.3
2014-Sep-22 16:33N 47°43' W 003°22'1 1.1
2014-Sep-22 15:33N 47°44' W 003°22'0 0.0
2014-Sep-22 14:33N 47°44' W 003°22'0 0.1
2014-Sep-22 13:33N 47°44' W 003°22'0 0.0
2014-Sep-22 12:33N 47°44' W 003°22'0 0.0
2014-Sep-22 11:33N 47°44' W 003°22'0 0.0
2014-Sep-22 10:33N 47°44' W 003°22'0 0.0
2014-Sep-22 09:33N 47°44' W 003°22'0 0.0
2014-Sep-22 08:33N 47°44' W 003°22'0 0.0
2014-Sep-22 07:33N 47°44' W 003°22'0 0.0
2014-Sep-22 06:33N 47°44' W 003°22'0 0.0
2014-Sep-22 05:33N 47°44' W 003°22'4 4.0
2014-Sep-22 04:33N 47°41' W 003°26'  

Dump ship's entire track history